Bismarck, North Dakota
Current Conditions -  °F | °C
As of 11:52 PM on Tuesday 21 Oct 2014 (Local Time) from KBIS Reporting Station
Clear Clear  
Wind Chill: 66°   Ceiling: Unl
Heat Index: 66°   Visibility: 10mi
Dew Point: 39°   Wind: 22mph
Humidity: 37%   Direction: 160°SSE
Pressure: 29.66"   Gusts: NA
Location:  46.81°N, 100.77°W
Report Text: KBIS 220452Z 16019KT 10SM CLR 19/04 A2966 RMK AO2 SLP041 T01890039
Loading
Personal Weather Stations






























Interactive Weather Map
Tropical Storm Tracking
New forecast layout! Learn more

10-Day Weather Forecast

Advertisements
Track Severe Weather on mobile